Time;durP1;ratioP1;P1;durP2;ratioP2;P2;SDS_P1;SDS_P2;PMS_P1;PMS_P2;Temp;Humidity;BMP_temperature;BMP_pressure;BME280_temperature;BME280_humidity;BME280_pressure;Samples;Min_cycle;Max_cycle;Signal;HPM_P1;HPM_P2
2021/07/24 09:11:42;;;;;;;11.73;3.28;;;24.70;80.00;;;;;;12053424;27;20134;-62
2021/07/24 09:17:29;;;;;;;8.68;3.33;;;24.90;81.50;;;;;;12008777;28;20060;-62
2021/07/24 09:23:27;;;;;;;7.90;3.00;;;25.20;77.30;;;;;;12022081;28;20044;-63
2021/07/24 09:29:17;;;;;;;8.88;3.25;;;25.50;77.50;;;;;;12069064;27;20102;-63
2021/07/24 09:35:04;;;;;;;8.55;3.35;;;25.60;77.10;;;;;;12052149;27;20064;-63
2021/07/24 09:40:52;;;;;;;8.93;3.25;;;25.60;76.50;;;;;;12066704;27;20059;-65
2021/07/24 09:46:40;;;;;;;6.70;3.15;;;25.70;76.10;;;;;;12071367;28;20068;-65
2021/07/24 09:52:27;;;;;;;8.57;3.00;;;26.10;74.80;;;;;;12109559;27;20049;-66
2021/07/24 09:58:21;;;;;;;10.00;4.18;;;26.00;74.30;;;;;;12125753;28;20036;-66
2021/07/24 10:04:10;;;;;;;12.02;4.50;;;25.90;74.70;;;;;;12095832;27;20066;-66
2021/07/24 10:09:58;;;;;;;9.38;3.35;;;26.00;74.70;;;;;;12016751;27;21008;-67
2021/07/24 10:15:46;;;;;;;6.13;2.65;;;26.30;73.30;;;;;;12048139;27;20044;-66
2021/07/24 10:21:41;;;;;;;7.35;2.70;;;26.40;72.90;;;;;;12015511;27;20053;-66
2021/07/24 10:27:33;;;;;;;9.55;3.80;;;26.60;72.20;;;;;;12008922;28;20099;-66
2021/07/24 10:33:22;;;;;;;8.80;3.33;;;26.80;71.60;;;;;;12090335;28;20045;-66
2021/07/24 10:39:20;;;;;;;7.43;2.83;;;26.80;72.00;;;;;;12090281;28;20055;-66
2021/07/24 10:45:48;;;;;;;7.78;2.97;;;27.00;70.10;;;;;;12090735;28;20044;-68
2021/07/24 10:51:54;;;;;;;10.52;2.70;;;26.90;71.10;;;;;;12083564;28;20051;-73
2021/07/24 10:58:07;;;;;;;9.50;2.53;;;26.90;70.50;;;;;;12090056;28;20520;-65
2021/07/24 11:03:54;;;;;;;8.32;2.65;;;27.10;70.10;;;;;;12089867;28;20044;-65
2021/07/24 11:09:42;;;;;;;4.60;2.22;;;27.50;70.50;;;;;;12057040;28;20068;-64
2021/07/24 11:15:51;;;;;;;6.55;2.22;;;27.50;68.60;;;;;;12039107;28;20049;-65
2021/07/24 11:22:09;;;;;;;7.82;2.95;;;27.80;68.50;;;;;;12022087;28;20056;-65
2021/07/24 11:27:56;;;;;;;7.00;2.10;;;28.30;67.70;;;;;;12044939;28;20048;-65
2021/07/24 11:33:46;;;;;;;5.45;1.92;;;28.50;65.40;;;;;;12021878;28;20045;-65
2021/07/24 11:39:33;;;;;;;5.90;2.05;;;28.60;65.50;;;;;;12044321;28;20517;-68
2021/07/24 11:45:20;;;;;;;5.03;2.55;;;28.90;63.40;;;;;;12027894;28;20063;-65
2021/07/24 11:51:10;;;;;;;6.60;3.83;;;28.90;64.50;;;;;;12038273;28;20099;-70
2021/07/24 11:56:57;;;;;;;9.35;4.10;;;29.10;63.30;;;;;;12027752;28;20068;-65
2021/07/24 12:02:47;;;;;;;6.10;3.72;;;29.10;62.40;;;;;;12087972;28;20052;-64
2021/07/24 12:08:37;;;;;;;4.07;2.13;;;29.20;63.30;;;;;;12037347;28;20049;-70
2021/07/24 12:14:25;;;;;;;4.32;2.13;;;28.70;61.80;;;;;;12047846;28;20040;-61
2021/07/24 12:20:16;;;;;;;5.22;2.22;;;28.40;62.80;;;;;;12083919;28;20052;-61
2021/07/24 12:26:08;;;;;;;5.40;1.80;;;28.50;64.20;;;;;;12085536;28;20425;-62
2021/07/24 12:31:56;;;;;;;4.40;1.70;;;28.60;63.60;;;;;;12081709;28;20032;-61
2021/07/24 12:37:43;;;;;;;5.22;1.77;;;28.60;64.50;;;;;;12082912;28;20131;-61
2021/07/24 12:43:32;;;;;;;8.50;2.13;;;28.70;63.90;;;;;;12084069;28;20040;-61
2021/07/24 12:49:36;;;;;;;5.40;2.20;;;28.90;63.70;;;;;;12085125;28;20059;-61
2021/07/24 12:55:25;;;;;;;4.15;1.83;;;29.30;62.70;;;;;;12090059;28;20048;-62
2021/07/24 13:01:15;;;;;;;5.35;1.88;;;29.50;61.20;;;;;;12085888;28;20044;-61
2021/07/24 13:07:06;;;;;;;3.72;1.63;;;29.70;59.90;;;;;;12069947;28;20056;-63
2021/07/24 13:12:54;;;;;;;4.10;1.92;;;29.60;59.60;;;;;;12043656;28;20052;-61
2021/07/24 13:18:43;;;;;;;3.17;1.70;;;29.30;59.30;;;;;;12025425;28;20043;-61
2021/07/24 13:24:31;;;;;;;7.05;2.60;;;29.00;59.90;;;;;;12043456;28;20048;-61
2021/07/24 13:30:18;;;;;;;4.15;2.08;;;29.00;60.20;;;;;;12027488;28;20068;-60
2021/07/24 13:36:06;;;;;;;3.03;1.85;;;29.10;61.20;;;;;;12042186;28;20052;-64
2021/07/24 13:41:53;;;;;;;2.75;1.63;;;28.90;60.50;;;;;;12037947;28;20495;-61
2021/07/24 13:47:40;;;;;;;9.50;1.92;;;29.00;60.10;;;;;;12029381;28;20043;-62
2021/07/24 13:53:28;;;;;;;3.35;1.80;;;29.30;59.00;;;;;;12085584;28;20048;-61
2021/07/24 13:59:15;;;;;;;4.40;1.63;;;29.40;59.00;;;;;;12088991;28;20106;-61
2021/07/24 14:05:09;;;;;;;5.97;1.98;;;29.30;58.90;;;;;;12088417;28;20401;-61
2021/07/24 14:10:58;;;;;;;3.90;1.40;;;29.60;58.50;;;;;;12064378;28;20462;-61
2021/07/24 14:16:45;;;;;;;2.60;1.40;;;29.30;57.30;;;;;;12080877;28;20044;-62
2021/07/24 14:22:33;;;;;;;4.68;1.50;;;29.50;58.60;;;;;;12091484;28;20071;-62
2021/07/24 14:28:21;;;;;;;9.35;1.70;;;29.60;57.20;;;;;;12092395;28;20054;-62
2021/07/24 14:34:08;;;;;;;2.22;1.50;;;29.60;57.90;;;;;;12092277;28;20090;-62
2021/07/24 14:39:55;;;;;;;5.38;1.45;;;29.40;57.60;;;;;;12091058;28;20047;-62
2021/07/24 14:45:43;;;;;;;4.03;1.35;;;28.80;57.90;;;;;;12092516;28;20554;-62
2021/07/24 14:51:31;;;;;;;7.05;1.83;;;28.50;59.50;;;;;;12090354;28;20048;-63
2021/07/24 14:57:18;;;;;;;6.18;2.05;;;28.20;60.80;;;;;;12088662;28;20393;-62
2021/07/24 15:03:06;;;;;;;4.55;1.80;;;28.30;61.10;;;;;;12091422;28;20040;-62
2021/07/24 15:08:53;;;;;;;4.07;2.05;;;28.30;61.30;;;;;;12048379;28;20051;-62
2021/07/24 15:14:40;;;;;;;13.05;1.92;;;28.10;62.60;;;;;;12088578;28;20041;-61
2021/07/24 15:20:28;;;;;;;4.93;1.90;;;28.30;61.80;;;;;;12088319;28;20648;-61
2021/07/24 15:26:15;;;;;;;3.92;1.60;;;28.40;61.70;;;;;;12089537;28;20044;-61
2021/07/24 15:32:04;;;;;;;4.30;1.70;;;28.90;63.10;;;;;;12087298;28;20040;-61
2021/07/24 15:37:52;;;;;;;5.97;1.90;;;29.30;60.80;;;;;;12084989;28;20056;-62
2021/07/24 15:43:39;;;;;;;4.22;1.70;;;29.80;60.30;;;;;;12088508;28;20464;-62
2021/07/24 15:49:26;;;;;;;13.98;2.00;;;30.20;58.80;;;;;;12082826;28;20078;-63
2021/07/24 15:55:15;;;;;;;5.57;1.85;;;30.80;59.50;;;;;;12087546;28;20036;-61
2021/07/24 16:01:02;;;;;;;8.25;2.10;;;31.00;57.60;;;;;;12088012;28;20415;-61
2021/07/24 16:06:49;;;;;;;5.93;3.10;;;30.20;59.00;;;;;;12065275;28;20476;-61
2021/07/24 16:12:37;;;;;;;6.03;2.35;;;30.00;60.70;;;;;;12026629;28;20044;-62
2021/07/24 16:18:24;;;;;;;6.20;1.85;;;32.40;57.50;;;;;;12038925;28;20116;-65
2021/07/24 16:24:11;;;;;;;4.57;1.52;;;33.90;54.70;;;;;;12033554;28;20237;-64
2021/07/24 16:30:00;;;;;;;4.60;2.03;;;34.30;53.10;;;;;;12087218;28;21397;-63
2021/07/24 16:35:47;;;;;;;4.68;1.85;;;33.00;54.60;;;;;;12073079;28;20032;-62
2021/07/24 16:41:34;;;;;;;4.75;2.10;;;31.70;57.50;;;;;;12086433;28;20083;-62
2021/07/24 16:47:22;;;;;;;4.53;1.60;;;30.60;59.20;;;;;;12084635;28;20053;-63
2021/07/24 16:53:09;;;;;;;4.32;1.50;;;30.00;60.10;;;;;;12085158;28;20051;-63
2021/07/24 16:58:56;;;;;;;5.25;1.85;;;30.70;58.70;;;;;;12085045;28;20046;-63
2021/07/24 17:04:44;;;;;;;7.07;4.00;;;32.70;55.90;;;;;;12085596;28;20044;-63
2021/07/24 17:10:31;;;;;;;3.72;1.42;;;35.70;50.40;;;;;;12023636;28;20048;-63
2021/07/24 17:16:19;;;;;;;9.18;1.70;;;37.30;45.90;;;;;;12076870;28;20130;-63
2021/07/24 17:22:07;;;;;;;7.28;2.15;;;36.50;48.10;;;;;;12083638;28;20059;-63
2021/07/24 17:27:55;;;;;;;4.85;2.00;;;34.10;52.60;;;;;;12085574;28;20040;-64
2021/07/24 17:33:43;;;;;;;25.33;4.57;;;32.10;56.40;;;;;;12091019;28;20060;-69
2021/07/24 17:39:31;;;;;;;6.53;2.10;;;30.60;63.50;;;;;;12094031;28;20057;-71
2021/07/24 17:45:18;;;;;;;6.05;2.25;;;28.80;71.30;;;;;;12093298;28;20070;-73
2021/07/24 17:51:08;;;;;;;5.55;2.13;;;26.40;77.80;;;;;;12095667;28;20040;-74
2021/07/24 17:56:56;;;;;;;9.10;2.22;;;25.00;84.50;;;;;;12090270;28;20033;-70
2021/07/24 18:02:45;;;;;;;2.88;1.95;;;25.00;86.40;;;;;;12090923;28;20056;-70
2021/07/24 18:08:32;;;;;;;10.95;3.95;;;25.20;84.60;;;;;;12046745;28;20052;-69
2021/07/24 18:14:20;;;;;;;5.80;1.95;;;26.10;90.50;;;;;;12043458;28;20051;-70
2021/07/24 18:20:08;;;;;;;7.97;2.30;;;29.60;80.30;;;;;;12033765;28;20082;-70
2021/07/24 18:25:57;;;;;;;5.45;2.30;;;32.10;71.10;;;;;;12035706;28;20051;-70
2021/07/24 18:31:46;;;;;;;3.15;1.85;;;32.60;65.90;;;;;;12045047;28;20518;-70
2021/07/24 18:37:32;;;;;;;8.30;2.55;;;32.90;66.30;;;;;;12025191;28;20049;-70
2021/07/24 18:50:03;;;;;;;4.53;2.03;;;30.30;72.00;;;;;;12089750;28;20040;-70
2021/07/24 18:55:50;;;;;;;8.15;2.72;;;29.00;75.90;;;;;;12090858;28;20040;-70
2021/07/24 19:01:37;;;;;;;5.25;2.28;;;28.30;79.20;;;;;;12090730;28;20523;-71
2021/07/24 19:07:25;;;;;;;8.05;2.30;;;27.80;80.30;;;;;;12061976;28;20036;-67
2021/07/24 19:13:12;;;;;;;7.32;2.22;;;27.30;82.10;;;;;;12081106;28;20040;-68
2021/07/24 19:18:59;;;;;;;58.50;31.50;;;26.90;83.30;;;;;;12072609;28;20047;-61
2021/07/24 19:24:48;;;;;;;47.60;28.05;;;26.70;85.60;;;;;;12090122;28;20052;-68
2021/07/24 19:30:35;;;;;;;19.25;12.73;;;26.60;85.90;;;;;;12089491;28;20504;-67
2021/07/24 19:36:21;;;;;;;9.25;4.97;;;26.30;86.10;;;;;;12088204;28;20504;-66
2021/07/24 19:42:10;;;;;;;5.38;2.60;;;26.10;86.30;;;;;;12089249;28;20056;-67
2021/07/24 19:47:56;;;;;;;7.75;2.33;;;25.90;86.50;;;;;;12090618;28;20038;-66
2021/07/24 19:53:43;;;;;;;7.47;2.45;;;25.90;88.00;;;;;;12087949;28;20052;-68
2021/07/24 19:59:32;;;;;;;8.30;4.90;;;25.90;86.90;;;;;;12088269;28;20100;-67
2021/07/24 20:05:23;;;;;;;7.05;3.42;;;25.80;88.00;;;;;;12081826;28;20048;-67
2021/07/24 20:11:10;;;;;;;6.32;3.10;;;25.80;87.90;;;;;;12041410;28;20057;-68
2021/07/24 20:16:58;;;;;;;6.78;3.08;;;25.60;87.70;;;;;;12033585;28;20048;-67
2021/07/24 20:22:45;;;;;;;5.70;2.40;;;25.50;88.70;;;;;;12036909;28;20554;-68
2021/07/24 20:28:32;;;;;;;5.50;3.40;;;25.40;88.70;;;;;;12032432;28;20061;-67
2021/07/24 20:34:21;;;;;;;5.80;2.65;;;25.40;89.40;;;;;;12033972;28;20041;-68
2021/07/24 20:40:09;;;;;;;8.20;3.10;;;25.30;90.00;;;;;;12052640;28;20067;-67
2021/07/24 20:45:56;;;;;;;4.78;3.08;;;25.40;90.20;;;;;;12087175;28;20063;-67
2021/07/24 20:51:44;;;;;;;5.10;2.75;;;25.50;90.00;;;;;;12082856;28;20531;-67
2021/07/24 20:57:31;;;;;;;4.95;3.05;;;25.40;90.00;;;;;;12085706;28;20068;-67
2021/07/24 21:03:18;;;;;;;7.28;3.53;;;25.40;90.00;;;;;;12085451;28;20440;-67
2021/07/24 21:09:12;;;;;;;36.55;15.70;;;25.30;90.00;;;;;;12048480;28;20397;-67
2021/07/24 21:14:59;;;;;;;44.38;16.80;;;25.30;90.30;;;;;;12080708;28;20048;-68
2021/07/24 21:20:46;;;;;;;9.82;4.78;;;25.20;90.50;;;;;;12078966;28;20064;-68
2021/07/24 21:26:35;;;;;;;24.33;9.60;;;25.20;90.40;;;;;;12083078;28;20134;-68
2021/07/24 21:32:21;;;;;;;9.77;5.95;;;25.10;90.60;;;;;;12085210;28;20056;-68
2021/07/24 21:38:08;;;;;;;9.40;6.25;;;25.20;90.60;;;;;;12081985;28;20048;-68
2021/07/24 21:43:57;;;;;;;12.90;8.00;;;25.20;90.90;;;;;;12070038;28;20045;-67
2021/07/24 21:49:44;;;;;;;10.02;6.35;;;25.10;90.90;;;;;;12084705;28;20516;-67
2021/07/24 21:55:30;;;;;;;12.90;5.40;;;25.10;90.80;;;;;;12085014;28;20047;-68
2021/07/24 22:01:19;;;;;;;10.45;6.18;;;25.10;91.00;;;;;;12084814;28;20040;-67
2021/07/24 22:13:07;;;;;;;8.73;4.40;;;25.10;91.10;;;;;;12021698;28;20055;-68
2021/07/24 22:18:56;;;;;;;10.10;5.68;;;25.20;92.40;;;;;;12045699;28;20053;-68
2021/07/24 22:24:43;;;;;;;35.05;22.00;;;25.20;91.00;;;;;;12031345;28;20080;-68
2021/07/24 22:30:30;;;;;;;32.33;17.77;;;25.10;91.10;;;;;;12084465;28;20048;-67
2021/07/24 22:36:18;;;;;;;17.08;10.10;;;25.00;91.20;;;;;;12090890;28;20059;-67
